Time;durP1;ratioP1;P1;durP2;ratioP2;P2;SDS_P1;SDS_P2;PMS_P1;PMS_P2;Temp;Humidity;BMP_temperature;BMP_pressure;BME280_temperature;BME280_humidity;BME280_pressure;Samples;Min_cycle;Max_cycle;Signal;HPM_P1;HPM_P2
2023/04/17 00:02:02;;;;;;;20.65;11.68;;;;;;;;;;7391538;19;20086;-70
2023/04/17 00:04:29;;;;;;;20.25;12.05;;;;;;;;;;7393697;19;20002;-70
2023/04/17 00:06:55;;;;;;;20.30;11.63;;;;;;;;;;7390232;19;20005;-72
2023/04/17 00:09:20;;;;;;;22.27;11.75;;;;;;;;;;7393011;19;19999;-71
2023/04/17 00:11:45;;;;;;;24.42;12.98;;;;;;;;;;7389995;19;20390;-71
2023/04/17 00:14:10;;;;;;;22.30;12.73;;;;;;;;;;7393175;19;20012;-70
2023/04/17 00:16:36;;;;;;;22.95;13.27;;;;;;;;;;7391131;19;20021;-71
2023/04/17 00:19:01;;;;;;;22.38;13.27;;;;;;;;;;7392455;19;20337;-70
2023/04/17 00:21:28;;;;;;;24.10;13.40;;;;;;;;;;7391620;19;19994;-70
2023/04/17 00:23:54;;;;;;;26.98;14.40;;;;;;;;;;7392695;19;20448;-70
2023/04/17 00:26:19;;;;;;;26.55;14.48;;;;;;;;;;7390634;19;19998;-70
2023/04/17 00:28:46;;;;;;;23.95;13.18;;;;;;;;;;7391718;19;19991;-70
2023/04/17 00:31:11;;;;;;;24.58;13.63;;;;;;;;;;7391210;19;20012;-71
2023/04/17 00:33:37;;;;;;;25.92;14.88;;;;;;;;;;7392097;19;20022;-71
2023/04/17 00:36:02;;;;;;;23.40;14.65;;;;;;;;;;7392271;19;20018;-71
2023/04/17 00:38:27;;;;;;;27.70;15.52;;;;;;;;;;7391729;19;20077;-71
2023/04/17 00:40:53;;;;;;;25.58;15.60;;;;;;;;;;7391914;19;20471;-71
2023/04/17 00:43:18;;;;;;;28.30;16.45;;;;;;;;;;7393102;19;20011;-71
2023/04/17 00:45:46;;;;;;;30.30;16.80;;;;;;;;;;7390255;19;20068;-72
2023/04/17 00:48:14;;;;;;;26.95;15.23;;;;;;;;;;7391919;19;19995;-71
2023/04/17 00:50:40;;;;;;;28.05;15.65;;;;;;;;;;7390434;19;20410;-71
2023/04/17 00:53:05;;;;;;;27.42;15.35;;;;;;;;;;7391774;19;20017;-72
2023/04/17 00:55:33;;;;;;;28.13;15.65;;;;;;;;;;7387415;19;20451;-72
2023/04/17 00:57:59;;;;;;;33.22;17.55;;;;;;;;;;7390990;19;20010;-71
2023/04/17 01:00:25;;;;;;;27.33;15.75;;;;;;;;;;7389124;19;20003;-71
2023/04/17 01:02:50;;;;;;;26.80;16.23;;;;;;;;;;7390776;19;19999;-71
2023/04/17 01:05:16;;;;;;;30.67;16.83;;;;;;;;;;7388634;19;20415;-71
2023/04/17 01:07:42;;;;;;;26.52;15.48;;;;;;;;;;7389741;19;19998;-72
2023/04/17 01:10:08;;;;;;;27.40;15.35;;;;;;;;;;7389332;19;19991;-71
2023/04/17 01:12:33;;;;;;;28.70;16.55;;;;;;;;;;7391925;19;20075;-70
2023/04/17 01:14:59;;;;;;;26.60;16.77;;;;;;;;;;7396016;19;19998;-71
2023/04/17 01:17:25;;;;;;;28.27;15.73;;;;;;;;;;7387927;19;19999;-70
2023/04/17 01:19:51;;;;;;;30.90;15.98;;;;;;;;;;7389646;19;19991;-70
2023/04/17 01:22:17;;;;;;;27.38;14.70;;;;;;;;;;7389219;19;20002;-70
2023/04/17 01:24:42;;;;;;;26.15;15.25;;;;;;;;;;7388576;19;20054;-70
2023/04/17 01:27:08;;;;;;;33.55;15.85;;;;;;;;;;7387971;19;19998;-72
2023/04/17 01:29:34;;;;;;;25.42;15.82;;;;;;;;;;7389430;19;20002;-72
2023/04/17 01:31:59;;;;;;;26.42;14.43;;;;;;;;;;7388532;19;20010;-70
2023/04/17 01:34:25;;;;;;;24.88;14.68;;;;;;;;;;7389726;19;20378;-70
2023/04/17 01:36:50;;;;;;;20.92;13.00;;;;;;;;;;7392009;19;20456;-70
2023/04/17 01:39:16;;;;;;;26.05;13.55;;;;;;;;;;7389761;19;19998;-70
2023/04/17 01:41:42;;;;;;;24.92;13.98;;;;;;;;;;7386694;19;19995;-70
2023/04/17 01:44:07;;;;;;;24.42;14.02;;;;;;;;;;7390189;19;20022;-71
2023/04/17 01:46:33;;;;;;;26.60;13.93;;;;;;;;;;7387612;19;20074;-71
2023/04/17 01:48:58;;;;;;;25.90;15.35;;;;;;;;;;7387233;19;20010;-71
2023/04/17 01:51:24;;;;;;;29.00;15.10;;;;;;;;;;7389393;19;20018;-70
2023/04/17 01:53:49;;;;;;;27.55;15.60;;;;;;;;;;7393796;19;20073;-71
2023/04/17 01:56:14;;;;;;;28.33;14.23;;;;;;;;;;7391629;19;20005;-71
2023/04/17 01:58:40;;;;;;;25.63;14.75;;;;;;;;;;7392777;19;20012;-71
2023/04/17 02:01:05;;;;;;;26.20;14.68;;;;;;;;;;7387409;19;20007;-71
2023/04/17 02:03:31;;;;;;;25.13;15.43;;;;;;;;;;7388202;19;20006;-71
2023/04/17 02:05:57;;;;;;;25.15;14.57;;;;;;;;;;7387632;19;19999;-71
2023/04/17 02:08:23;;;;;;;24.95;14.73;;;;;;;;;;7388281;19;19999;-71
2023/04/17 02:10:48;;;;;;;23.98;14.48;;;;;;;;;;7387794;19;20003;-71
2023/04/17 02:13:14;;;;;;;22.05;14.32;;;;;;;;;;7388979;19;20404;-71
2023/04/17 02:15:39;;;;;;;24.02;15.05;;;;;;;;;;7388009;19;20015;-71
2023/04/17 02:18:05;;;;;;;25.08;14.02;;;;;;;;;;7388523;19;20003;-71
2023/04/17 02:20:31;;;;;;;26.85;14.43;;;;;;;;;;7384718;19;20010;-70
2023/04/17 02:22:58;;;;;;;26.65;15.23;;;;;;;;;;7388753;19;20002;-70
2023/04/17 02:25:24;;;;;;;23.88;13.90;;;;;;;;;;7387418;19;20017;-70
2023/04/17 02:27:49;;;;;;;28.48;14.57;;;;;;;;;;7390567;19;20030;-71
2023/04/17 02:30:14;;;;;;;24.38;14.40;;;;;;;;;;7388170;19;20003;-71
2023/04/17 02:32:40;;;;;;;25.48;14.32;;;;;;;;;;7386782;19;20373;-72
2023/04/17 02:35:06;;;;;;;23.63;14.43;;;;;;;;;;7387110;19;20317;-71
2023/04/17 02:37:31;;;;;;;27.92;15.27;;;;;;;;;;7388506;19;20109;-71
2023/04/17 02:39:56;;;;;;;26.48;14.63;;;;;;;;;;7386294;19;20018;-71
2023/04/17 02:42:22;;;;;;;29.40;15.57;;;;;;;;;;7387015;19;20527;-71
2023/04/17 02:44:47;;;;;;;24.92;15.52;;;;;;;;;;7388002;19;20019;-71
2023/04/17 02:47:12;;;;;;;29.58;15.43;;;;;;;;;;7390333;19;20562;-70
2023/04/17 02:49:37;;;;;;;29.35;15.80;;;;;;;;;;7386261;19;20058;-70
2023/04/17 02:52:03;;;;;;;28.13;14.65;;;;;;;;;;7386721;19;19998;-71
2023/04/17 02:54:29;;;;;;;25.92;16.30;;;;;;;;;;7391194;19;20034;-70
2023/04/17 02:56:57;;;;;;;29.23;15.57;;;;;;;;;;7387614;19;20017;-71
2023/04/17 02:59:26;;;;;;;23.95;14.82;;;;;;;;;;7387173;19;20002;-71
2023/04/17 03:01:51;;;;;;;26.88;15.20;;;;;;;;;;7384500;19;20344;-71
2023/04/17 03:04:16;;;;;;;29.98;15.88;;;;;;;;;;7387659;19;19999;-70
2023/04/17 03:06:41;;;;;;;28.88;16.38;;;;;;;;;;7385550;19;20022;-70
2023/04/17 03:09:07;;;;;;;27.17;15.70;;;;;;;;;;7386476;19;20030;-71
2023/04/17 03:11:32;;;;;;;27.17;15.70;;;;;;;;;;7383703;19;20345;-71
2023/04/17 03:13:58;;;;;;;30.17;16.40;;;;;;;;;;7386570;19;19995;-71
2023/04/17 03:16:23;;;;;;;30.23;16.85;;;;;;;;;;7385829;19;20465;-71
2023/04/17 03:18:48;;;;;;;32.58;16.85;;;;;;;;;;7386085;19;20002;-70
2023/04/17 03:21:14;;;;;;;32.25;17.10;;;;;;;;;;7385570;19;20023;-69
2023/04/17 03:23:40;;;;;;;31.60;17.95;;;;;;;;;;7386665;19;20468;-70
2023/04/17 03:26:05;;;;;;;30.02;16.45;;;;;;;;;;7385736;19;19998;-71
2023/04/17 03:28:31;;;;;;;32.20;17.75;;;;;;;;;;7386240;19;20448;-70
2023/04/17 03:30:58;;;;;;;30.77;17.75;;;;;;;;;;7384684;19;20010;-70
2023/04/17 03:33:24;;;;;;;27.73;16.70;;;;;;;;;;7385944;19;20002;-70
2023/04/17 03:35:49;;;;;;;32.58;17.60;;;;;;;;;;7389664;19;20031;-70
2023/04/17 03:38:16;;;;;;;32.50;18.15;;;;;;;;;;7386351;19;19994;-70
2023/04/17 03:40:41;;;;;;;32.38;16.92;;;;;;;;;;7382742;19;20002;-70
2023/04/17 03:43:07;;;;;;;35.00;19.10;;;;;;;;;;7385661;19;19999;-70
2023/04/17 03:48:02;;;;;;;31.90;18.37;;;;;;;;;;7385387;19;20014;-74
2023/04/17 03:50:28;;;;;;;33.20;18.55;;;;;;;;;;7381556;19;20032;-74
2023/04/17 03:52:53;;;;;;;29.55;18.13;;;;;;;;;;7385326;19;19995;-73
2023/04/17 03:55:18;;;;;;;32.20;17.98;;;;;;;;;;7384014;19;20098;-73
2023/04/17 03:57:44;;;;;;;32.78;17.58;;;;;;;;;;7381059;19;20403;-73
2023/04/17 04:00:10;;;;;;;32.85;17.38;;;;;;;;;;7381683;19;20020;-73
2023/04/17 04:02:36;;;;;;;38.65;19.15;;;;;;;;;;7384422;19;20078;-74
2023/04/17 04:05:01;;;;;;;33.08;17.88;;;;;;;;;;7384950;19;20495;-74
2023/04/17 04:07:27;;;;;;;33.58;17.48;;;;;;;;;;7385961;19;19995;-74
2023/04/17 04:09:55;;;;;;;30.15;17.00;;;;;;;;;;7389945;19;20003;-73
2023/04/17 04:12:22;;;;;;;32.05;17.50;;;;;;;;;;7388569;19;20017;-72
2023/04/17 04:14:48;;;;;;;33.65;17.75;;;;;;;;;;7389462;19;20134;-73
2023/04/17 04:17:13;;;;;;;31.95;18.35;;;;;;;;;;7382136;19;20019;-74
2023/04/17 04:19:39;;;;;;;32.22;17.60;;;;;;;;;;7384633;19;20022;-74
2023/04/17 04:22:04;;;;;;;29.60;17.30;;;;;;;;;;7384078;19;20073;-72
2023/04/17 04:24:30;;;;;;;35.75;17.90;;;;;;;;;;7386115;19;20011;-74
2023/04/17 04:27:01;;;;;;;30.95;17.08;;;;;;;;;;7385757;19;20066;-74
2023/04/17 04:29:26;;;;;;;29.35;17.13;;;;;;;;;;7387493;19;19998;-75
2023/04/17 04:31:52;;;;;;;33.17;17.90;;;;;;;;;;7385034;19;20386;-75
2023/04/17 04:34:17;;;;;;;36.22;19.65;;;;;;;;;;7378067;19;20023;-74
2023/04/17 04:36:48;;;;;;;32.67;18.08;;;;;;;;;;7379786;19;20460;-74
2023/04/17 04:39:19;;;;;;;31.55;17.50;;;;;;;;;;7381071;19;19999;-73
2023/04/17 04:41:44;;;;;;;33.37;18.90;;;;;;;;;;7381059;19;19999;-73
2023/04/17 04:44:10;;;;;;;33.42;17.83;;;;;;;;;;7388130;19;19995;-74
2023/04/17 04:46:35;;;;;;;30.10;17.02;;;;;;;;;;7390013;19;19990;-74
2023/04/17 04:49:00;;;;;;;31.08;17.90;;;;;;;;;;7391525;19;20355;-71
2023/04/17 04:51:26;;;;;;;34.08;17.90;;;;;;;;;;7391939;19;20398;-74
2023/04/17 04:53:51;;;;;;;31.75;17.88;;;;;;;;;;7390229;19;19991;-78
2023/04/17 04:56:16;;;;;;;33.00;18.30;;;;;;;;;;7391478;19;19995;-77
2023/04/17 04:58:41;;;;;;;29.65;17.80;;;;;;;;;;7394798;19;20002;-78
2023/04/17 05:01:07;;;;;;;29.58;17.88;;;;;;;;;;7390248;19;20436;-78
2023/04/17 05:03:32;;;;;;;31.92;17.70;;;;;;;;;;7391456;19;20432;-77
2023/04/17 05:05:58;;;;;;;34.35;18.30;;;;;;;;;;7389488;19;20015;-77
2023/04/17 05:08:23;;;;;;;31.92;18.05;;;;;;;;;;7388958;19;20524;-71
2023/04/17 05:10:48;;;;;;;29.73;18.20;;;;;;;;;;7385830;19;20511;-76
2023/04/17 05:13:13;;;;;;;29.40;17.13;;;;;;;;;;7361499;19;20333;-76
2023/04/17 05:15:40;;;;;;;31.90;18.20;;;;;;;;;;7389644;19;20054;-78
2023/04/17 05:18:06;;;;;;;32.20;18.05;;;;;;;;;;7387999;19;20454;-77
2023/04/17 05:20:31;;;;;;;29.65;17.65;;;;;;;;;;7386698;19;20023;-78
2023/04/17 05:22:57;;;;;;;31.55;17.90;;;;;;;;;;7393334;19;19994;-77
2023/04/17 05:25:23;;;;;;;32.33;18.50;;;;;;;;;;7393568;19;20006;-77
2023/04/17 05:27:48;;;;;;;28.15;17.50;;;;;;;;;;7391868;19;20004;-77
2023/04/17 05:30:14;;;;;;;32.97;18.15;;;;;;;;;;7389563;19;20001;-78
2023/04/17 05:32:39;;;;;;;32.80;18.77;;;;;;;;;;7392337;19;20032;-77
2023/04/17 05:35:05;;;;;;;33.30;17.52;;;;;;;;;;7393347;19;20464;-77
2023/04/17 05:37:30;;;;;;;30.15;17.73;;;;;;;;;;7389596;19;19991;-77
2023/04/17 05:39:58;;;;;;;27.42;16.67;;;;;;;;;;7391240;19;20002;-77
2023/04/17 05:42:24;;;;;;;25.60;16.05;;;;;;;;;;7387894;19;20006;-77
2023/04/17 05:44:49;;;;;;;25.77;15.52;;;;;;;;;;7390978;19;20076;-77
2023/04/17 05:47:14;;;;;;;29.08;15.52;;;;;;;;;;7390291;19;20473;-77
2023/04/17 05:49:41;;;;;;;31.88;15.98;;;;;;;;;;7392449;19;20456;-77
2023/04/17 05:52:06;;;;;;;29.63;14.98;;;;;;;;;;7388053;19;19999;-77
2023/04/17 05:54:31;;;;;;;31.30;14.50;;;;;;;;;;7387991;19;20001;-76
2023/04/17 05:56:57;;;;;;;27.67;14.73;;;;;;;;;;7390587;19;20005;-77
2023/04/17 05:59:22;;;;;;;23.75;14.15;;;;;;;;;;7391909;19;20464;-77
2023/04/17 06:01:47;;;;;;;23.55;13.60;;;;;;;;;;7350915;19;20498;-77
2023/04/17 06:04:13;;;;;;;21.98;13.13;;;;;;;;;;7387483;19;20488;-77
2023/04/17 06:06:38;;;;;;;21.80;14.40;;;;;;;;;;7389596;19;20459;-77
2023/04/17 06:09:06;;;;;;;22.25;13.60;;;;;;;;;;7391452;19;20006;-77
2023/04/17 06:11:31;;;;;;;26.40;14.40;;;;;;;;;;7390652;19;20017;-76
2023/04/17 06:13:56;;;;;;;24.65;14.27;;;;;;;;;;7389380;19;19998;-76
2023/04/17 06:16:22;;;;;;;30.25;15.20;;;;;;;;;;7391745;19;20027;-77
2023/04/17 06:18:47;;;;;;;26.38;14.65;;;;;;;;;;7391557;19;20009;-77
2023/04/17 06:21:12;;;;;;;34.00;15.98;;;;;;;;;;7390869;19;20014;-76
2023/04/17 06:23:38;;;;;;;28.45;14.95;;;;;;;;;;7393008;19;19998;-76
2023/04/17 06:26:03;;;;;;;27.70;14.95;;;;;;;;;;7390689;19;20003;-76
2023/04/17 06:28:28;;;;;;;26.83;15.18;;;;;;;;;;7388506;19;20019;-77
2023/04/17 06:30:54;;;;;;;27.65;15.18;;;;;;;;;;7390019;19;20005;-76
2023/04/17 06:33:19;;;;;;;28.85;15.55;;;;;;;;;;7389869;19;19999;-76
2023/04/17 06:35:44;;;;;;;23.95;15.20;;;;;;;;;;7391193;19;20077;-77
2023/04/17 06:38:10;;;;;;;26.98;14.90;;;;;;;;;;7388569;19;20106;-76
2023/04/17 06:40:35;;;;;;;23.83;14.40;;;;;;;;;;7390747;19;19999;-76
2023/04/17 06:43:00;;;;;;;23.33;13.77;;;;;;;;;;7392084;19;20013;-76
2023/04/17 06:45:26;;;;;;;23.88;14.52;;;;;;;;;;7389570;19;19995;-76
2023/04/17 06:47:51;;;;;;;22.05;13.05;;;;;;;;;;7391299;19;20023;-76
2023/04/17 06:50:17;;;;;;;23.00;13.93;;;;;;;;;;7410214;19;20011;-76
2023/04/17 06:52:42;;;;;;;20.90;13.98;;;;;;;;;;7412090;19;19995;-76
2023/04/17 06:55:08;;;;;;;22.08;14.60;;;;;;;;;;7403038;19;20020;-76
2023/04/17 06:57:34;;;;;;;20.83;13.02;;;;;;;;;;7390509;19;20070;-77
2023/04/17 06:59:59;;;;;;;20.15;12.75;;;;;;;;;;7387998;19;20015;-78
2023/04/17 07:02:25;;;;;;;18.05;11.93;;;;;;;;;;7387551;19;19995;-76
2023/04/17 07:04:50;;;;;;;19.20;12.50;;;;;;;;;;7389353;19;19998;-76
2023/04/17 07:07:15;;;;;;;23.20;12.88;;;;;;;;;;7387565;19;20032;-78
2023/04/17 07:09:41;;;;;;;23.90;13.90;;;;;;;;;;7390023;19;20058;-77
2023/04/17 07:12:07;;;;;;;25.88;14.80;;;;;;;;;;7386250;19;20010;-77
2023/04/17 07:14:34;;;;;;;21.15;13.65;;;;;;;;;;7388405;19;20069;-77
2023/04/17 07:16:59;;;;;;;27.08;13.57;;;;;;;;;;7388209;19;20002;-77
2023/04/17 07:19:25;;;;;;;21.33;12.85;;;;;;;;;;7390696;19;20002;-77
2023/04/17 07:21:50;;;;;;;25.60;13.88;;;;;;;;;;7385270;19;20006;-77
2023/04/17 07:24:16;;;;;;;22.75;12.93;;;;;;;;;;7388426;19;20055;-77
2023/04/17 07:26:42;;;;;;;21.63;12.85;;;;;;;;;;7389353;19;20002;-76
2023/04/17 07:29:07;;;;;;;26.58;14.20;;;;;;;;;;7389776;19;20031;-77
2023/04/17 07:31:33;;;;;;;19.35;11.93;;;;;;;;;;7387823;19;20013;-77
2023/04/17 07:33:59;;;;;;;20.75;12.32;;;;;;;;;;7387073;19;20003;-77
2023/04/17 07:36:26;;;;;;;19.77;11.98;;;;;;;;;;7389375;19;20006;-77
2023/04/17 07:38:51;;;;;;;18.77;11.63;;;;;;;;;;7387059;19;20079;-77
2023/04/17 07:41:16;;;;;;;17.45;9.35;;;;;;;;;;7387490;19;20109;-77
2023/04/17 07:43:42;;;;;;;16.63;11.52;;;;;;;;;;7390944;19;19995;-77
2023/04/17 07:46:07;;;;;;;13.23;6.65;;;;;;;;;;7388438;19;20101;-78
2023/04/17 07:48:32;;;;;;;17.70;9.45;;;;;;;;;;7386324;19;20074;-77
2023/04/17 07:51:00;;;;;;;14.88;9.57;;;;;;;;;;7386841;19;20058;-71
2023/04/17 07:53:27;;;;;;;14.45;8.48;;;;;;;;;;7389804;19;20003;-81
2023/04/17 07:55:53;;;;;;;17.40;10.70;;;;;;;;;;7326498;19;20003;-82
2023/04/17 07:58:19;;;;;;;20.50;9.18;;;;;;;;;;7387338;19;20142;-81
2023/04/17 08:00:44;;;;;;;17.02;10.00;;;;;;;;;;7385159;19;19994;-82
2023/04/17 08:03:09;;;;;;;15.32;9.13;;;;;;;;;;7386476;19;20013;-82
2023/04/17 08:05:35;;;;;;;18.05;8.73;;;;;;;;;;7389697;19;19999;-82
2023/04/17 08:08:00;;;;;;;16.08;8.95;;;;;;;;;;7388388;19;20460;-80
2023/04/17 08:10:27;;;;;;;12.93;8.60;;;;;;;;;;7387046;19;20003;-81
2023/04/17 08:12:53;;;;;;;14.70;8.98;;;;;;;;;;7388727;19;20138;-81
2023/04/17 08:15:18;;;;;;;15.48;8.43;;;;;;;;;;7389925;19;20564;-80
2023/04/17 08:17:43;;;;;;;16.48;9.80;;;;;;;;;;7388489;19;20003;-82
2023/04/17 08:20:10;;;;;;;14.27;8.82;;;;;;;;;;7392199;19;19991;-82
2023/04/17 08:22:43;;;;;;;15.60;9.27;;;;;;;;;;7395372;19;20003;-82
2023/04/17 08:25:09;;;;;;;13.32;8.43;;;;;;;;;;7395653;19;19998;-82
2023/04/17 08:27:36;;;;;;;17.05;8.90;;;;;;;;;;7394520;19;20376;-81
2023/04/17 08:30:03;;;;;;;13.18;8.63;;;;;;;;;;7392197;19;19998;-82
2023/04/17 08:32:28;;;;;;;14.05;8.02;;;;;;;;;;7394124;19;20011;-81
2023/04/17 08:34:56;;;;;;;12.05;6.82;;;;;;;;;;7395542;19;20048;-80
2023/04/17 08:37:22;;;;;;;14.52;8.50;;;;;;;;;;7334345;19;20006;-81
2023/04/17 08:39:51;;;;;;;13.95;7.05;;;;;;;;;;7395246;19;20013;-81
2023/04/17 08:42:16;;;;;;;11.43;7.38;;;;;;;;;;7392420;19;20784;-80
2023/04/17 08:44:41;;;;;;;15.73;8.63;;;;;;;;;;7394099;19;19994;-79
2023/04/17 08:47:08;;;;;;;16.02;9.68;;;;;;;;;;7391914;19;20007;-79
2023/04/17 08:49:34;;;;;;;15.65;9.70;;;;;;;;;;7395733;19;19999;-79
2023/04/17 08:52:03;;;;;;;18.35;10.18;;;;;;;;;;7391080;19;20013;-79
2023/04/17 08:54:34;;;;;;;17.88;10.00;;;;;;;;;;7393636;19;20011;-79
2023/04/17 08:57:02;;;;;;;15.85;8.00;;;;;;;;;;7392635;19;20040;-80
2023/04/17 08:59:28;;;;;;;19.85;9.63;;;;;;;;;;7394736;19;20027;-81
2023/04/17 09:02:01;;;;;;;21.17;9.70;;;;;;;;;;7387775;19;20460;-79
2023/04/17 09:04:45;;;;;;;15.95;9.05;;;;;;;;;;7392283;19;20006;-78
2023/04/17 09:07:14;;;;;;;17.85;9.98;;;;;;;;;;7392016;19;20002;-77
2023/04/17 09:09:52;;;;;;;17.52;9.07;;;;;;;;;;7395624;19;20094;-78
2023/04/17 09:12:19;;;;;;;12.90;7.68;;;;;;;;;;7388658;19;20038;-78
2023/04/17 09:14:45;;;;;;;17.05;7.80;;;;;;;;;;7391480;19;20362;-79
2023/04/17 09:17:10;;;;;;;21.15;10.85;;;;;;;;;;7392348;19;19999;-79
2023/04/17 09:19:36;;;;;;;17.38;9.85;;;;;;;;;;7394553;19;20030;-79
2023/04/17 09:22:21;;;;;;;17.98;8.80;;;;;;;;;;7282673;19;20010;-78
2023/04/17 09:24:47;;;;;;;16.52;9.48;;;;;;;;;;7392548;19;20006;-79
2023/04/17 09:27:22;;;;;;;23.92;10.52;;;;;;;;;;7347448;19;20010;-79
2023/04/17 09:30:02;;;;;;;19.50;10.30;;;;;;;;;;7393430;19;20002;-79
2023/04/17 09:32:29;;;;;;;18.70;10.40;;;;;;;;;;7390489;19;20006;-78
2023/04/17 09:34:56;;;;;;;17.77;9.95;;;;;;;;;;7392995;19;20348;-79
2023/04/17 09:37:22;;;;;;;25.33;10.93;;;;;;;;;;7392303;19;19999;-78
2023/04/17 09:39:59;;;;;;;16.80;9.43;;;;;;;;;;7394292;19;20024;-79
2023/04/17 09:42:25;;;;;;;24.63;10.18;;;;;;;;;;7392727;19;20078;-78
2023/04/17 09:44:51;;;;;;;20.55;9.63;;;;;;;;;;7391159;19;20003;-78
2023/04/17 09:47:21;;;;;;;25.17;11.10;;;;;;;;;;7387640;19;20074;-75
2023/04/17 09:49:49;;;;;;;14.57;8.93;;;;;;;;;;7391205;19;20027;-76
2023/04/17 09:52:18;;;;;;;14.80;7.50;;;;;;;;;;7386446;19;20096;-76
2023/04/17 09:54:46;;;;;;;15.48;8.95;;;;;;;;;;7389436;19;20071;-77
2023/04/17 09:57:12;;;;;;;18.83;9.13;;;;;;;;;;7390776;19;20008;-77
2023/04/17 09:59:44;;;;;;;14.88;8.32;;;;;;;;;;7392796;19;20668;-76
2023/04/17 10:02:12;;;;;;;13.80;6.35;;;;;;;;;;7387790;19;20451;-77
2023/04/17 10:04:42;;;;;;;16.40;9.10;;;;;;;;;;7389112;19;20014;-77
2023/04/17 10:07:07;;;;;;;16.10;9.90;;;;;;;;;;7387543;19;20001;-77
2023/04/17 10:09:33;;;;;;;10.52;6.20;;;;;;;;;;7389104;19;19999;-76
2023/04/17 10:12:00;;;;;;;12.43;7.18;;;;;;;;;;7384221;19;19995;-77
2023/04/17 10:14:36;;;;;;;14.15;6.90;;;;;;;;;;7385277;19;19999;-77
2023/04/17 10:17:21;;;;;;;14.85;9.68;;;;;;;;;;7385833;19;19999;-77
2023/04/17 10:19:46;;;;;;;13.98;7.82;;;;;;;;;;7388031;19;19998;-75
2023/04/17 10:22:14;;;;;;;18.90;10.25;;;;;;;;;;7384443;19;20969;-76
2023/04/17 10:24:44;;;;;;;15.27;9.38;;;;;;;;;;7387925;19;19998;-75
2023/04/17 10:27:28;;;;;;;18.20;10.13;;;;;;;;;;7388936;19;20010;-76
2023/04/17 10:29:57;;;;;;;17.80;9.30;;;;;;;;;;7387471;19;20440;-77
2023/04/17 10:32:25;;;;;;;18.08;10.10;;;;;;;;;;7386958;19;20002;-76
2023/04/17 10:35:02;;;;;;;16.85;9.48;;;;;;;;;;7389148;19;20018;-76
2023/04/17 10:37:46;;;;;;;13.50;7.68;;;;;;;;;;7386868;19;20291;-77
2023/04/17 10:40:19;;;;;;;12.50;8.25;;;;;;;;;;7386660;19;20070;-77
2023/04/17 10:43:22;;;;;;;14.07;7.50;;;;;;;;;;7388110;19;19994;-76
2023/04/17 10:45:58;;;;;;;15.32;8.35;;;;;;;;;;7389819;19;20454;-77
2023/04/17 10:48:31;;;;;;;11.32;7.07;;;;;;;;;;7388442;19;20491;-77
2023/04/17 10:50:58;;;;;;;13.30;7.65;;;;;;;;;;7389460;19;20495;-77
2023/04/17 10:53:40;;;;;;;15.15;8.18;;;;;;;;;;7392321;19;20023;-78
2023/04/17 10:56:07;;;;;;;12.57;6.18;;;;;;;;;;7391842;19;20018;-76
2023/04/17 10:58:36;;;;;;;10.43;5.93;;;;;;;;;;7392494;19;20010;-77
2023/04/17 11:01:08;;;;;;;9.57;5.20;;;;;;;;;;7394724;19;19998;-76
2023/04/17 11:03:36;;;;;;;8.10;4.93;;;;;;;;;;7389571;19;20013;-76
2023/04/17 11:06:01;;;;;;;8.38;4.90;;;;;;;;;;7389736;19;20003;-75
2023/04/17 11:08:27;;;;;;;10.05;5.45;;;;;;;;;;7391487;19;20003;-76
2023/04/17 11:10:54;;;;;;;7.82;4.13;;;;;;;;;;7386574;19;20306;-76
2023/04/17 11:13:20;;;;;;;7.40;4.32;;;;;;;;;;7389141;19;19999;-76
2023/04/17 11:15:46;;;;;;;9.23;4.22;;;;;;;;;;7389520;19;20462;-76
2023/04/17 11:18:12;;;;;;;6.53;4.07;;;;;;;;;;7389210;19;20002;-76
2023/04/17 11:20:37;;;;;;;10.02;3.83;;;;;;;;;;7395641;19;20009;-76
2023/04/17 11:23:04;;;;;;;8.30;4.00;;;;;;;;;;7396748;19;19990;-76
2023/04/17 11:25:32;;;;;;;10.65;5.15;;;;;;;;;;7394791;19;20011;-76
2023/04/17 11:28:00;;;;;;;8.63;4.18;;;;;;;;;;7396276;19;20007;-76
2023/04/17 11:30:39;;;;;;;10.25;4.00;;;;;;;;;;7394423;19;20469;-75
2023/04/17 11:33:06;;;;;;;8.68;4.22;;;;;;;;;;7393127;19;20110;-75
2023/04/17 11:35:33;;;;;;;6.35;3.10;;;;;;;;;;7389386;19;20006;-78
2023/04/17 11:38:12;;;;;;;12.23;3.42;;;;;;;;;;7398387;19;20154;-75
2023/04/17 11:40:42;;;;;;;7.47;3.85;;;;;;;;;;7387169;19;20035;-74
2023/04/17 11:43:09;;;;;;;5.40;3.20;;;;;;;;;;7387394;19;19995;-75
2023/04/17 11:45:35;;;;;;;6.93;3.97;;;;;;;;;;7389192;19;20468;-74
2023/04/17 11:48:01;;;;;;;6.65;4.38;;;;;;;;;;7387711;19;19994;-76
2023/04/17 11:50:31;;;;;;;9.43;4.78;;;;;;;;;;7419407;19;20006;-74
2023/04/17 11:53:01;;;;;;;7.15;3.72;;;;;;;;;;7422827;19;19995;-74
2023/04/17 11:55:30;;;;;;;7.35;4.53;;;;;;;;;;7424450;19;20014;-74
2023/04/17 11:58:01;;;;;;;9.20;4.03;;;;;;;;;;7418359;19;19998;-75
2023/04/17 12:00:30;;;;;;;6.80;4.40;;;;;;;;;;7427839;19;20046;-75
2023/04/17 12:02:56;;;;;;;8.60;4.47;;;;;;;;;;7429337;19;19999;-79
2023/04/17 12:05:23;;;;;;;7.05;4.10;;;;;;;;;;7430221;19;20357;-75
2023/04/17 12:08:03;;;;;;;6.38;3.47;;;;;;;;;;7424065;19;20044;-73
2023/04/17 12:10:39;;;;;;;10.10;4.33;;;;;;;;;;7403259;19;19994;-73
2023/04/17 12:13:05;;;;;;;7.10;4.18;;;;;;;;;;7392981;19;20024;-73
2023/04/17 12:15:30;;;;;;;9.88;5.25;;;;;;;;;;7417759;19;19991;-74
2023/04/17 12:17:56;;;;;;;8.02;4.10;;;;;;;;;;7425374;19;19995;-77
2023/04/17 12:20:21;;;;;;;6.35;4.10;;;;;;;;;;7424035;19;19994;-76
2023/04/17 12:22:47;;;;;;;7.80;3.88;;;;;;;;;;7427622;19;19997;-74
2023/04/17 12:25:12;;;;;;;6.82;3.28;;;;;;;;;;7419310;19;20015;-74
2023/04/17 12:27:38;;;;;;;9.38;3.72;;;;;;;;;;7422655;19;20006;-74
2023/04/17 12:30:04;;;;;;;8.00;3.05;;;;;;;;;;7421972;19;19995;-73
2023/04/17 12:32:29;;;;;;;7.22;2.95;;;;;;;;;;7407409;19;20019;-73
2023/04/17 12:34:55;;;;;;;5.13;2.63;;;;;;;;;;7404854;19;20014;-73
2023/04/17 12:37:20;;;;;;;4.85;2.90;;;;;;;;;;7404220;19;19998;-73
2023/04/17 12:39:46;;;;;;;5.75;3.25;;;;;;;;;;7398400;19;19986;-74
2023/04/17 12:42:11;;;;;;;4.22;2.42;;;;;;;;;;7399661;19;20006;-73
2023/04/17 12:44:36;;;;;;;6.60;3.10;;;;;;;;;;7400998;19;20009;-74
2023/04/17 12:47:02;;;;;;;4.88;2.47;;;;;;;;;;7412758;19;20006;-74
2023/04/17 12:49:27;;;;;;;6.85;3.53;;;;;;;;;;7408214;19;20012;-75
2023/04/17 12:51:53;;;;;;;6.45;3.00;;;;;;;;;;7415154;19;20040;-74
2023/04/17 12:54:18;;;;;;;5.50;3.00;;;;;;;;;;7424398;19;20203;-74
2023/04/17 12:56:43;;;;;;;5.85;3.25;;;;;;;;;;7423372;19;20460;-74
2023/04/17 12:59:09;;;;;;;5.60;2.83;;;;;;;;;;7419592;19;19998;-74
2023/04/17 13:01:34;;;;;;;3.63;2.30;;;;;;;;;;7412445;19;20009;-75
2023/04/17 13:04:00;;;;;;;4.72;2.58;;;;;;;;;;7419656;19;20009;-75
2023/04/17 13:06:26;;;;;;;5.88;2.88;;;;;;;;;;7415948;19;20026;-75
2023/04/17 13:08:52;;;;;;;6.07;3.22;;;;;;;;;;7417901;19;20003;-74
2023/04/17 13:11:17;;;;;;;5.20;2.60;;;;;;;;;;7426705;19;19991;-75
2023/04/17 13:13:43;;;;;;;4.07;2.53;;;;;;;;;;7427770;19;19991;-75
2023/04/17 13:16:09;;;;;;;5.97;2.78;;;;;;;;;;7424004;19;20005;-74
2023/04/17 13:18:34;;;;;;;6.85;3.40;;;;;;;;;;7423448;19;19999;-75
2023/04/17 13:20:59;;;;;;;7.47;2.72;;;;;;;;;;7424431;19;20005;-75
2023/04/17 13:23:25;;;;;;;11.38;4.18;;;;;;;;;;7424939;19;20058;-75
2023/04/17 13:25:50;;;;;;;6.10;3.35;;;;;;;;;;7408721;19;20024;-72
2023/04/17 13:28:15;;;;;;;6.32;2.72;;;;;;;;;;7395691;19;19998;-73
2023/04/17 13:30:41;;;;;;;7.28;3.28;;;;;;;;;;7414649;19;19994;-74
2023/04/17 13:33:06;;;;;;;6.72;3.28;;;;;;;;;;7417486;19;20033;-69
2023/04/17 13:35:31;;;;;;;8.00;3.53;;;;;;;;;;7406994;19;20339;-75
2023/04/17 13:38:01;;;;;;;8.32;3.60;;;;;;;;;;7401517;19;20008;-73
2023/04/17 13:40:26;;;;;;;5.57;2.95;;;;;;;;;;7389468;19;20409;-74
2023/04/17 13:42:52;;;;;;;7.45;3.40;;;;;;;;;;7391411;19;20010;-74
2023/04/17 13:45:17;;;;;;;6.57;3.40;;;;;;;;;;7399962;19;20310;-74
2023/04/17 13:47:43;;;;;;;6.47;3.35;;;;;;;;;;7398781;19;20003;-74
2023/04/17 13:50:09;;;;;;;7.00;3.10;;;;;;;;;;7396171;19;20413;-74
2023/04/17 13:52:34;;;;;;;8.18;3.47;;;;;;;;;;7388327;19;19994;-73
2023/04/17 13:54:59;;;;;;;5.38;2.80;;;;;;;;;;7389021;19;20054;-72
2023/04/17 13:57:25;;;;;;;7.65;3.35;;;;;;;;;;7385889;19;20401;-73
2023/04/17 13:59:51;;;;;;;6.75;3.17;;;;;;;;;;7381897;19;20562;-72
2023/04/17 14:02:16;;;;;;;8.57;3.28;;;;;;;;;;7385467;19;20478;-71
2023/04/17 14:04:41;;;;;;;8.90;3.60;;;;;;;;;;7412919;19;20000;-76
2023/04/17 14:07:07;;;;;;;5.30;3.30;;;;;;;;;;7404458;19;20079;-75
2023/04/17 14:09:32;;;;;;;7.32;3.22;;;;;;;;;;7419448;19;19987;-75
2023/04/17 14:11:58;;;;;;;6.20;3.25;;;;;;;;;;7404049;19;20002;-76
2023/04/17 14:14:23;;;;;;;5.38;3.47;;;;;;;;;;7421328;19;19987;-77
2023/04/17 14:16:49;;;;;;;6.57;3.15;;;;;;;;;;7417586;19;20031;-76
2023/04/17 14:19:15;;;;;;;5.32;2.97;;;;;;;;;;7397161;19;20070;-76
2023/04/17 14:21:41;;;;;;;7.40;3.72;;;;;;;;;;7389558;19;19998;-76
2023/04/17 14:24:06;;;;;;;5.75;3.40;;;;;;;;;;7389025;19;19994;-77
2023/04/17 14:26:32;;;;;;;6.90;3.55;;;;;;;;;;7388076;19;19999;-75